Time;durP1;ratioP1;P1;durP2;ratioP2;P2;SDS_P1;SDS_P2;PMS_P1;PMS_P2;Temp;Humidity;BMP_temperature;BMP_pressure;BME280_temperature;BME280_humidity;BME280_pressure;Samples;Min_cycle;Max_cycle;Signal;HPM_P1;HPM_P2
2023/07/15 00:01:21;;;;;;;4.60;2.45;;;;;;;-142.75;100.00;75046.97;4987405;28;20457;-62
2023/07/15 00:03:47;;;;;;;5.78;2.17;;;;;;;-142.75;100.00;75045.00;4987159;28;20034;-63
2023/07/15 00:06:13;;;;;;;3.40;2.10;;;;;;;-142.75;100.00;75043.03;4987191;28;20026;-62
2023/07/15 00:08:38;;;;;;;3.85;2.35;;;;;;;-142.75;100.00;75054.84;4986940;28;20415;-62
2023/07/15 00:11:06;;;;;;;5.57;2.60;;;;;;;-142.75;100.00;75058.78;4987208;28;20073;-62
2023/07/15 00:13:31;;;;;;;4.28;2.00;;;;;;;-142.75;100.00;75054.84;4992780;28;20038;-63
2023/07/15 00:15:57;;;;;;;3.08;1.30;;;;;;;-142.75;100.00;75039.13;5005610;28;20030;-63
2023/07/15 00:18:23;;;;;;;3.47;2.05;;;;;;;-142.75;100.00;75031.25;5006456;28;20497;-63
2023/07/15 00:20:49;;;;;;;4.07;2.20;;;;;;;-142.75;100.00;75023.38;5005890;28;20504;-63
2023/07/15 00:23:26;;;;;;;6.60;2.05;;;;;;;-142.75;100.00;75005.66;5006605;28;20018;-63
2023/07/15 00:25:53;;;;;;;4.32;2.03;;;;;;;-142.75;100.00;75035.19;5006531;28;20018;-62
2023/07/15 00:28:22;;;;;;;4.07;2.22;;;;;;;-142.75;100.00;75023.38;5006476;28;20026;-63
2023/07/15 00:30:53;;;;;;;6.22;1.98;;;;;;;-142.75;100.00;75009.59;5005727;28;20574;-64
2023/07/15 00:33:20;;;;;;;3.47;1.52;;;;;;;-142.75;100.00;75027.31;5006409;28;20029;-63
2023/07/15 00:35:46;;;;;;;6.38;1.70;;;;;;;-142.75;100.00;75041.09;5006094;28;20033;-63
2023/07/15 00:38:12;;;;;;;5.05;1.83;;;;;;;-142.75;100.00;75035.19;5005769;28;20517;-63
2023/07/15 00:40:44;;;;;;;3.50;1.67;;;;;;;-142.75;100.00;75031.25;5005659;28;20064;-63
2023/07/15 00:43:47;;;;;;;5.03;1.58;;;;;;;-142.75;100.00;75011.56;5006028;28;20030;-63
2023/07/15 00:46:18;;;;;;;3.25;1.60;;;;;;;-142.75;100.00;75009.59;5000552;28;20050;-62
2023/07/15 00:49:02;;;;;;;6.68;1.70;;;;;;;-142.75;100.00;75015.50;5005695;28;20018;-63
2023/07/15 00:51:30;;;;;;;2.38;1.42;;;;;;;-142.75;100.00;75025.34;5006131;28;20032;-63
2023/07/15 00:53:56;;;;;;;3.22;1.70;;;;;;;-142.75;100.00;75045.00;5005923;28;20056;-63
2023/07/15 00:56:23;;;;;;;2.78;1.50;;;;;;;-142.75;100.00;75035.19;5006130;28;20100;-63
2023/07/15 00:58:50;;;;;;;3.47;1.65;;;;;;;-142.75;100.00;75062.72;5005699;28;20049;-63
2023/07/15 01:01:15;;;;;;;4.85;1.48;;;;;;;-142.75;100.00;75064.69;5005724;28;20068;-63
2023/07/15 01:03:41;;;;;;;4.70;1.85;;;;;;;-142.75;100.00;75076.50;5006155;28;20013;-63
2023/07/15 01:06:07;;;;;;;4.20;1.80;;;;;;;-142.75;100.00;75084.38;5005737;28;20731;-63
2023/07/15 01:08:32;;;;;;;3.63;1.77;;;;;;;-142.75;100.00;75084.38;5005506;28;20021;-63
2023/07/15 01:10:58;;;;;;;4.25;1.63;;;;;;;-142.75;100.00;75090.28;5005788;28;20069;-63
2023/07/15 01:13:23;;;;;;;5.05;1.92;;;;;;;-142.75;100.00;75090.28;4993860;28;20018;-63
2023/07/15 01:15:48;;;;;;;3.78;1.83;;;;;;;-142.75;100.00;75082.41;5008457;28;20033;-64
2023/07/15 01:18:14;;;;;;;4.07;2.05;;;;;;;-142.75;100.00;75096.19;5006394;28;20025;-63
2023/07/15 01:20:39;;;;;;;11.02;2.28;;;;;;;-142.75;100.00;75070.59;4990403;28;20033;-63
2023/07/15 01:23:04;;;;;;;4.55;1.60;;;;;;;-142.75;100.00;75064.69;4985946;28;20720;-61
2023/07/15 01:25:30;;;;;;;3.65;1.67;;;;;;;-142.75;100.00;75068.63;4986049;28;20101;-63
2023/07/15 01:27:55;;;;;;;4.57;1.52;;;;;;;-142.75;100.00;75066.66;4986369;28;20022;-63
2023/07/15 01:30:21;;;;;;;5.75;2.30;;;;;;;-142.75;100.00;75066.66;4985454;28;20108;-63
2023/07/15 01:32:47;;;;;;;4.25;1.95;;;;;;;-142.75;100.00;75064.69;4985836;28;20053;-63
2023/07/15 01:35:12;;;;;;;7.72;2.08;;;;;;;-142.75;100.00;75066.66;4985596;28;20537;-63
2023/07/15 01:37:37;;;;;;;4.60;1.90;;;;;;;-142.75;100.00;75068.63;4985633;28;20088;-63
2023/07/15 01:40:06;;;;;;;2.85;1.50;;;;;;;-142.75;100.00;75068.63;4985358;28;20157;-62
2023/07/15 01:42:31;;;;;;;3.63;1.67;;;;;;;-142.75;100.00;75072.56;4985819;28;20036;-63
2023/07/15 01:44:57;;;;;;;6.53;1.80;;;;;;;-142.75;100.00;75072.56;4985876;28;20446;-63
2023/07/15 01:47:22;;;;;;;2.28;1.30;;;;;;;-142.75;100.00;75084.38;4985523;28;20064;-63
2023/07/15 01:49:47;;;;;;;5.63;1.80;;;;;;;-142.75;100.00;75090.28;4984587;28;20031;-63
2023/07/15 01:52:14;;;;;;;4.07;1.95;;;;;;;-142.75;100.00;75072.56;4985475;28;20456;-62
2023/07/15 01:54:39;;;;;;;5.70;1.90;;;;;;;-142.75;100.00;75070.59;4985157;28;20026;-63
2023/07/15 01:57:04;;;;;;;2.80;1.58;;;;;;;-142.75;100.00;75072.56;4992607;28;20669;-63
2023/07/15 01:59:30;;;;;;;3.95;1.67;;;;;;;-142.75;100.00;75076.50;5004965;28;20036;-62
2023/07/15 02:01:58;;;;;;;4.28;1.67;;;;;;;-142.75;100.00;75084.38;5004862;28;20099;-63
2023/07/15 02:04:24;;;;;;;5.68;1.90;;;;;;;-142.75;100.00;75076.50;5004797;28;20022;-63
2023/07/15 02:06:49;;;;;;;5.63;1.58;;;;;;;-142.75;100.00;75056.81;5004845;28;20032;-62
2023/07/15 02:09:14;;;;;;;5.20;1.77;;;;;;;-142.75;100.00;75062.72;5004313;28;20025;-63
2023/07/15 02:11:40;;;;;;;4.38;1.65;;;;;;;-142.75;100.00;75068.63;5004456;28;20657;-64
2023/07/15 02:14:05;;;;;;;2.85;1.50;;;;;;;-142.75;100.00;75070.59;5004787;28;20037;-60
2023/07/15 02:16:31;;;;;;;5.80;1.40;;;;;;;-142.75;100.00;75082.41;5004931;28;20014;-63
2023/07/15 02:18:56;;;;;;;3.80;1.33;;;;;;;-142.75;100.00;75082.41;5004200;28;20034;-63
2023/07/15 02:21:25;;;;;;;4.53;1.40;;;;;;;-142.75;100.00;75070.59;5004555;28;20394;-63
2023/07/15 02:23:52;;;;;;;2.90;1.45;;;;;;;-142.75;100.00;75058.78;4983912;28;20590;-63
2023/07/15 02:26:17;;;;;;;5.22;1.33;;;;;;;-142.75;100.00;75056.81;4985655;28;20393;-63
2023/07/15 02:28:43;;;;;;;5.05;1.73;;;;;;;-142.75;100.00;75052.88;4984964;28;20022;-63
2023/07/15 02:31:09;;;;;;;5.55;1.50;;;;;;;-142.75;100.00;75046.97;4984950;28;20367;-63
2023/07/15 02:33:34;;;;;;;2.20;1.10;;;;;;;-142.75;100.00;75035.19;4985107;28;20032;-64
2023/07/15 02:35:59;;;;;;;3.60;1.50;;;;;;;-142.75;100.00;75031.25;4985454;28;20077;-63
2023/07/15 02:38:25;;;;;;;3.85;1.70;;;;;;;-142.75;100.00;75039.13;4984850;28;20045;-62
2023/07/15 02:40:51;;;;;;;5.57;1.98;;;;;;;-142.75;100.00;75045.00;4986356;28;20026;-63
2023/07/15 02:43:19;;;;;;;7.07;2.08;;;;;;;-142.75;100.00;75039.13;4985143;28;20661;-63
2023/07/15 02:45:47;;;;;;;2.90;1.63;;;;;;;-142.75;100.00;75025.34;4985190;28;20529;-63
2023/07/15 02:48:12;;;;;;;4.20;1.73;;;;;;;-142.75;100.00;75035.19;4985008;28;20038;-63
2023/07/15 02:50:38;;;;;;;4.65;1.70;;;;;;;-142.75;100.00;75054.84;4999602;28;20026;-62
2023/07/15 02:53:03;;;;;;;5.60;2.22;;;;;;;-142.75;100.00;75066.66;5004447;28;20018;-63
2023/07/15 02:55:30;;;;;;;4.70;1.67;;;;;;;-142.75;100.00;75064.69;5004412;28;20784;-63
2023/07/15 02:57:55;;;;;;;6.15;2.03;;;;;;;-142.75;100.00;75062.72;5004941;28;20170;-63
2023/07/15 03:00:22;;;;;;;6.90;1.98;;;;;;;-142.75;100.00;75066.66;5004027;28;20033;-63
2023/07/15 03:02:47;;;;;;;6.22;1.70;;;;;;;-142.75;100.00;75092.25;5007416;28;20029;-63
2023/07/15 03:05:13;;;;;;;3.10;1.67;;;;;;;-142.75;100.00;75096.19;5007682;28;20021;-63
2023/07/15 03:07:41;;;;;;;3.80;1.55;;;;;;;-142.75;100.00;75084.38;5007638;28;20116;-63
2023/07/15 03:10:07;;;;;;;6.28;1.98;;;;;;;-142.75;100.00;75098.16;5007589;28;20250;-63
2023/07/15 03:12:32;;;;;;;4.70;1.70;;;;;;;-142.75;100.00;75090.28;5008196;28;20104;-63
2023/07/15 03:14:58;;;;;;;3.30;1.80;;;;;;;-142.75;100.00;75090.28;5007910;28;20478;-62
2023/07/15 03:17:23;;;;;;;4.22;1.95;;;;;;;-142.75;100.00;75082.41;5007506;28;20048;-63
2023/07/15 03:19:48;;;;;;;7.88;1.83;;;;;;;-142.75;100.00;75080.44;5007423;28;20057;-63
2023/07/15 03:22:14;;;;;;;3.28;1.73;;;;;;;-142.75;100.00;75090.28;5004845;28;20030;-62
2023/07/15 03:24:39;;;;;;;4.93;1.77;;;;;;;-142.75;100.00;75070.59;5007389;28;20665;-63
2023/07/15 03:27:04;;;;;;;6.05;1.88;;;;;;;-142.75;100.00;75066.66;4987286;28;20675;-65
2023/07/15 03:29:30;;;;;;;3.20;1.60;;;;;;;-142.75;100.00;75062.72;4996988;28;20397;-64
2023/07/15 03:31:55;;;;;;;3.53;1.80;;;;;;;-142.75;100.00;75066.66;5007503;28;20563;-62
2023/07/15 03:34:21;;;;;;;2.90;1.50;;;;;;;-142.75;100.00;75078.47;5007258;28;20057;-63
2023/07/15 03:36:46;;;;;;;6.63;1.95;;;;;;;-142.75;100.00;75090.28;5007289;28;21474;-63
2023/07/15 03:39:12;;;;;;;2.80;1.75;;;;;;;-142.75;100.00;75090.28;5006701;28;20103;-63
2023/07/15 03:41:37;;;;;;;3.33;1.77;;;;;;;-142.75;100.00;75084.38;5007113;28;20080;-63
2023/07/15 03:44:03;;;;;;;3.88;1.80;;;;;;;-142.75;100.00;75086.34;5007554;28;20386;-63
2023/07/15 03:46:29;;;;;;;2.97;1.13;;;;;;;-142.75;100.00;75070.59;4994080;28;20050;-63
2023/07/15 03:48:55;;;;;;;2.50;1.15;;;;;;;-142.75;100.00;75072.56;4987429;28;21060;-63
2023/07/15 03:51:20;;;;;;;3.22;1.40;;;;;;;-142.75;100.00;75072.56;4987338;28;20026;-63
2023/07/15 03:53:45;;;;;;;2.55;1.33;;;;;;;-142.75;100.00;75064.69;4987473;28;20027;-63
2023/07/15 03:56:11;;;;;;;6.43;1.30;;;;;;;-142.75;100.00;75082.41;5006316;28;20028;-64
2023/07/15 03:58:37;;;;;;;3.05;1.30;;;;;;;-142.75;100.00;75074.53;5006997;28;20065;-63
2023/07/15 04:01:03;;;;;;;3.05;1.33;;;;;;;-142.75;100.00;75054.84;5007073;28;20033;-63
2023/07/15 04:03:28;;;;;;;6.55;1.40;;;;;;;-142.75;100.00;75048.94;5006356;28;20363;-62
2023/07/15 04:05:54;;;;;;;4.43;1.70;;;;;;;-142.75;100.00;75054.84;5006548;28;20627;-63
2023/07/15 04:08:19;;;;;;;6.90;1.58;;;;;;;-142.75;100.00;75056.81;5006681;28;20080;-63
2023/07/15 04:10:46;;;;;;;3.75;1.67;;;;;;;-142.75;100.00;75046.97;5006307;28;20505;-63
2023/07/15 04:13:12;;;;;;;4.00;0.98;;;;;;;-142.75;100.00;75060.75;5004626;28;20040;-63
2023/07/15 04:15:37;;;;;;;4.80;1.40;;;;;;;-142.75;100.00;75074.53;5006687;28;20045;-63
2023/07/15 04:18:02;;;;;;;2.85;1.25;;;;;;;-142.75;100.00;75056.81;5006629;28;20036;-63
2023/07/15 04:20:28;;;;;;;3.20;1.08;;;;;;;-142.75;100.00;75062.72;5005913;28;20022;-63
2023/07/15 04:22:53;;;;;;;4.30;1.27;;;;;;;-142.75;100.00;75056.81;5006724;28;20053;-63
2023/07/15 04:25:18;;;;;;;1.60;0.90;;;;;;;-142.75;100.00;75060.75;5006551;28;20101;-62
2023/07/15 04:27:44;;;;;;;3.75;1.30;;;;;;;-142.75;100.00;75054.84;5006652;28;20045;-63
2023/07/15 04:30:10;;;;;;;2.25;0.75;;;;;;;-142.75;100.00;75068.63;5006203;28;20522;-63
2023/07/15 04:32:36;;;;;;;2.15;0.90;;;;;;;-142.75;100.00;75078.47;5006267;28;20022;-62
2023/07/15 04:35:02;;;;;;;3.05;1.20;;;;;;;-142.75;100.00;75086.34;5006313;28;20033;-63
2023/07/15 04:37:27;;;;;;;2.47;1.10;;;;;;;-142.75;100.00;75060.75;5006141;28;20105;-63
2023/07/15 04:39:53;;;;;;;3.53;0.95;;;;;;;-142.75;100.00;75070.59;5005542;28;20108;-63
2023/07/15 04:42:18;;;;;;;2.28;0.98;;;;;;;-142.75;100.00;75082.41;5006165;28;20068;-63
2023/07/15 04:44:43;;;;;;;3.60;1.30;;;;;;;-142.75;100.00;75052.88;5006155;28;20032;-63
2023/07/15 04:47:09;;;;;;;2.72;1.08;;;;;;;-142.75;100.00;75054.84;5006049;28;20026;-63
2023/07/15 04:49:35;;;;;;;5.28;0.93;;;;;;;-142.75;100.00;75076.50;5005477;28;20553;-64
2023/07/15 04:52:00;;;;;;;1.38;0.63;;;;;;;-142.75;100.00;75082.41;4986627;28;20031;-63
2023/07/15 04:54:26;;;;;;;4.25;0.95;;;;;;;-142.75;100.00;75094.22;4986273;28;20456;-63
2023/07/15 04:56:51;;;;;;;1.60;0.77;;;;;;;-142.75;100.00;75068.63;4986941;28;20121;-63
2023/07/15 04:59:16;;;;;;;2.80;0.95;;;;;;;-142.75;100.00;75090.28;4986421;28;20034;-63
2023/07/15 05:01:42;;;;;;;2.80;1.00;;;;;;;-142.75;100.00;75080.44;4986238;28;20077;-64
2023/07/15 05:04:07;;;;;;;2.08;0.77;;;;;;;-142.75;100.00;75094.22;4986039;28;20030;-63
2023/07/15 05:06:33;;;;;;;2.63;0.80;;;;;;;-142.75;100.00;75098.16;5005629;28;20076;-63
2023/07/15 05:08:59;;;;;;;1.23;0.55;;;;;;;-142.75;100.00;75106.00;5005318;28;20589;-63
2023/07/15 05:11:26;;;;;;;2.97;0.88;;;;;;;-142.75;100.00;75117.81;5005556;28;20034;-64
2023/07/15 05:13:52;;;;;;;1.88;0.63;;;;;;;-142.75;100.00;75111.91;5005454;28;20026;-63
2023/07/15 05:16:17;;;;;;;1.30;0.55;;;;;;;-142.75;100.00;75111.91;5005499;28;20026;-64
2023/07/15 05:18:43;;;;;;;2.70;0.70;;;;;;;-142.75;100.00;75107.97;5005097;28;20064;-63
2023/07/15 05:21:08;;;;;;;3.70;0.60;;;;;;;-142.75;100.00;75104.03;5005112;28;20025;-63
2023/07/15 05:23:33;;;;;;;6.43;0.77;;;;;;;-142.75;100.00;75106.00;5005515;28;20105;-63
2023/07/15 05:26:00;;;;;;;2.70;0.90;;;;;;;-142.75;100.00;75106.00;5004935;28;20033;-63
2023/07/15 05:28:30;;;;;;;4.40;0.80;;;;;;;-142.75;100.00;75102.06;4998522;28;20026;-63
2023/07/15 05:31:03;;;;;;;1.60;0.70;;;;;;;-142.75;100.00;75094.22;4988032;28;20037;-62
2023/07/15 05:33:29;;;;;;;3.25;0.70;;;;;;;-142.75;100.00;75098.16;4989619;28;20085;-62
2023/07/15 05:35:55;;;;;;;2.38;0.70;;;;;;;-142.75;100.00;75082.41;4988451;28;20225;-64
2023/07/15 05:38:23;;;;;;;2.25;0.93;;;;;;;-142.75;100.00;75066.66;4992375;28;20021;-63
2023/07/15 05:40:48;;;;;;;3.33;0.90;;;;;;;-142.75;100.00;75086.34;4990030;28;20072;-63
2023/07/15 05:43:13;;;;;;;2.72;0.93;;;;;;;-142.75;100.00;75082.41;4986484;28;20509;-63
2023/07/15 05:45:39;;;;;;;4.00;0.90;;;;;;;-142.75;100.00;75070.59;4991842;28;20505;-63
2023/07/15 05:48:05;;;;;;;2.03;1.00;;;;;;;-142.75;100.00;75064.69;4990617;28;20065;-64
2023/07/15 05:50:34;;;;;;;4.40;1.00;;;;;;;-142.75;100.00;75070.59;4986280;28;20050;-62
2023/07/15 05:52:59;;;;;;;2.40;1.00;;;;;;;-142.75;100.00;75100.09;5003636;28;20105;-63
2023/07/15 05:55:25;;;;;;;2.88;0.98;;;;;;;-142.75;100.00;75078.47;5004819;28;20137;-62
2023/07/15 05:57:50;;;;;;;4.13;0.93;;;;;;;-142.75;100.00;75070.59;5005473;28;20053;-63
2023/07/15 06:00:15;;;;;;;5.30;0.90;;;;;;;-142.75;100.00;75088.31;5004613;28;20033;-63
2023/07/15 06:02:41;;;;;;;3.10;1.00;;;;;;;-142.75;100.00;75098.16;5004748;28;20156;-63
2023/07/15 06:05:07;;;;;;;4.93;0.60;;;;;;;-142.75;100.00;75109.94;5004628;28;20037;-63
2023/07/15 06:07:32;;;;;;;2.05;0.82;;;;;;;-142.75;100.00;75135.53;5005007;28;20501;-63
2023/07/15 06:09:57;;;;;;;5.53;0.68;;;;;;;-142.75;100.00;75157.19;4984981;28;20121;-63
2023/07/15 06:12:23;;;;;;;1.40;0.75;;;;;;;-142.75;100.00;75159.16;4985601;28;20032;-64
2023/07/15 06:14:49;;;;;;;4.00;0.85;;;;;;;-142.75;100.00;75121.75;4985307;28;20585;-63
2023/07/15 06:17:15;;;;;;;1.67;0.75;;;;;;;-142.75;100.00;75107.97;4985393;28;20489;-63
2023/07/15 06:19:40;;;;;;;3.78;0.85;;;;;;;-142.75;100.00;75102.06;4990049;28;20018;-63
2023/07/15 06:22:05;;;;;;;2.67;0.68;;;;;;;-142.75;100.00;75106.00;5004625;28;20036;-63
2023/07/15 06:24:31;;;;;;;1.58;0.68;;;;;;;-142.75;100.00;75086.34;4990529;28;20516;-64
2023/07/15 06:26:56;;;;;;;1.58;0.60;;;;;;;-142.75;100.00;75058.78;4986659;28;20041;-63
2023/07/15 06:29:24;;;;;;;0.90;0.45;;;;;;;-142.75;100.00;75072.56;4994221;28;20030;-63
2023/07/15 06:31:49;;;;;;;1.13;0.30;;;;;;;-142.75;100.00;75050.91;5004521;28;20034;-64
2023/07/15 06:34:15;;;;;;;1.70;0.60;;;;;;;-142.75;100.00;75082.41;5004497;28;20044;-63
2023/07/15 06:36:40;;;;;;;2.35;0.55;;;;;;;-142.75;100.00;75102.06;5005998;28;20025;-63
2023/07/15 06:39:06;;;;;;;1.85;0.90;;;;;;;-142.75;100.00;75104.03;5008096;28;20105;-63
2023/07/15 06:41:31;;;;;;;2.33;0.90;;;;;;;-142.75;100.00;75104.03;5008382;28;20624;-63
2023/07/15 06:43:56;;;;;;;3.50;0.95;;;;;;;-142.75;100.00;75125.69;5008213;28;20026;-62
2023/07/15 06:46:25;;;;;;;2.33;0.73;;;;;;;-142.75;100.00;75141.44;5004262;28;20041;-63
2023/07/15 06:48:50;;;;;;;1.33;0.60;;;;;;;-142.75;100.00;75188.66;4988377;28;20042;-63
2023/07/15 06:51:16;;;;;;;2.08;0.65;;;;;;;-142.75;100.00;75167.00;4988779;28;20033;-63
2023/07/15 06:53:41;;;;;;;2.88;1.02;;;;;;;-142.75;100.00;75141.44;4988864;28;20026;-63
2023/07/15 06:56:06;;;;;;;1.30;0.55;;;;;;;-142.75;100.00;75145.38;4988521;28;20030;-63
2023/07/15 06:58:32;;;;;;;3.60;0.90;;;;;;;-142.75;100.00;75149.31;4989005;28;20022;-62
2023/07/15 07:00:57;;;;;;;1.15;0.40;;;;;;;-142.75;100.00;75121.75;4988482;28;20030;-63
2023/07/15 07:03:23;;;;;;;5.45;0.80;;;;;;;-142.75;100.00;75086.34;4988460;28;20040;-63
2023/07/15 07:05:48;;;;;;;2.05;0.70;;;;;;;-142.75;100.00;75082.41;4987573;28;20037;-63
2023/07/15 07:08:13;;;;;;;1.75;0.68;;;;;;;-142.75;100.00;75054.84;4988438;28;20057;-63
2023/07/15 07:10:39;;;;;;;2.85;0.93;;;;;;;-142.75;100.00;75021.41;4987774;28;20053;-63
2023/07/15 07:13:04;;;;;;;2.00;0.70;;;;;;;-142.75;100.00;75007.63;4988528;28;20062;-62
2023/07/15 07:15:30;;;;;;;1.85;0.80;;;;;;;-142.75;100.00;74999.75;4988653;28;20835;-62
2023/07/15 07:17:56;;;;;;;1.60;0.75;;;;;;;-142.75;100.00;75005.66;4988185;28;20038;-63
2023/07/15 07:20:21;;;;;;;2.63;0.75;;;;;;;-142.75;100.00;75003.69;4987897;28;20026;-62
2023/07/15 07:22:47;;;;;;;2.20;0.85;;;;;;;-142.75;100.00;75023.38;4989268;28;20030;-62
2023/07/15 07:25:12;;;;;;;0.93;0.47;;;;;;;-142.75;100.00;74995.81;5005208;28;20026;-62
2023/07/15 07:27:37;;;;;;;2.28;0.80;;;;;;;-142.75;100.00;75019.44;5007232;28;20021;-62
2023/07/15 07:30:03;;;;;;;2.40;0.70;;;;;;;-142.75;100.00;75023.38;5006759;28;20029;-63
2023/07/15 07:32:28;;;;;;;0.85;0.50;;;;;;;-142.75;100.00;75035.19;4992120;28;20677;-62
2023/07/15 07:34:54;;;;;;;1.08;0.47;;;;;;;-142.75;100.00;75046.97;4987200;28;20026;-62
2023/07/15 07:37:19;;;;;;;3.88;0.90;;;;;;;-142.75;100.00;75078.47;4987232;28;20045;-62
2023/07/15 07:39:45;;;;;;;1.98;0.60;;;;;;;-142.75;100.00;75080.44;4986750;28;20065;-62
2023/07/15 07:42:10;;;;;;;2.60;0.90;;;;;;;-142.75;100.00;75084.38;4987237;28;20482;-62
2023/07/15 07:44:35;;;;;;;3.63;0.75;;;;;;;-142.75;100.00;75107.97;4986940;28;20581;-63
2023/07/15 07:47:01;;;;;;;1.10;0.47;;;;;;;-142.75;100.00;75115.84;4987611;28;20720;-62
2023/07/15 07:49:26;;;;;;;2.72;0.70;;;;;;;-142.75;100.00;75111.91;4988547;28;20501;-62
2023/07/15 07:51:51;;;;;;;2.47;0.80;;;;;;;-142.75;100.00;75078.47;4985397;28;20026;-62
2023/07/15 07:54:17;;;;;;;2.15;0.77;;;;;;;-142.75;100.00;75084.38;4990193;28;20466;-62
2023/07/15 07:56:42;;;;;;;2.97;0.80;;;;;;;-142.75;100.00;75062.72;4987376;28;20082;-63
2023/07/15 07:59:07;;;;;;;2.30;0.88;;;;;;;-142.75;100.00;75027.31;4986662;28;20635;-62
2023/07/15 08:01:33;;;;;;;2.85;0.82;;;;;;;-142.75;100.00;75058.78;4987034;28;20505;-62
2023/07/15 08:03:59;;;;;;;2.50;0.95;;;;;;;-142.75;100.00;75092.25;4986710;28;20029;-63
2023/07/15 08:06:25;;;;;;;2.45;1.10;;;;;;;-142.75;100.00;75086.34;4986547;28;20122;-62
2023/07/15 08:08:51;;;;;;;1.42;0.65;;;;;;;-142.75;100.00;75072.56;4983538;28;20030;-62
2023/07/15 08:11:16;;;;;;;2.35;0.73;;;;;;;-142.75;100.00;75062.72;4984555;28;20393;-62
2023/07/15 08:13:42;;;;;;;3.03;0.82;;;;;;;-142.75;100.00;75082.41;4985453;28;20034;-63
2023/07/15 08:16:27;;;;;;;4.75;1.13;;;;;;;-142.75;100.00;75066.66;4985621;28;20058;-61
2023/07/15 08:18:52;;;;;;;2.33;0.70;;;;;;;-142.75;100.00;75050.91;4985375;28;20030;-63
2023/07/15 08:21:18;;;;;;;3.08;0.80;;;;;;;-142.75;100.00;75058.78;4986675;28;20096;-63
2023/07/15 08:23:43;;;;;;;3.90;0.98;;;;;;;-142.75;100.00;75039.13;4985537;28;20021;-63
2023/07/15 08:26:08;;;;;;;4.10;0.90;;;;;;;-142.75;100.00;75029.28;4985145;28;20389;-62
2023/07/15 08:28:34;;;;;;;3.47;1.02;;;;;;;-142.75;100.00;75054.84;4986151;28;20705;-63
2023/07/15 08:30:59;;;;;;;1.55;0.70;;;;;;;-142.75;100.00;75048.94;4988214;28;20089;-62
2023/07/15 08:33:24;;;;;;;1.75;0.85;;;;;;;-142.75;100.00;75046.97;4986003;28;20498;-63
2023/07/15 08:35:50;;;;;;;2.47;0.70;;;;;;;-142.75;100.00;75043.03;4985292;28;20531;-62
2023/07/15 08:38:15;;;;;;;2.92;1.15;;;;;;;-142.75;100.00;75070.59;4984376;28;20038;-62
2023/07/15 08:40:44;;;;;;;1.35;0.65;;;;;;;-142.75;100.00;75070.59;4984843;28;20028;-63
2023/07/15 08:43:09;;;;;;;2.97;0.85;;;;;;;-142.75;100.00;75062.72;4985006;28;20109;-62
2023/07/15 08:45:36;;;;;;;3.30;0.80;;;;;;;-142.75;100.00;75031.25;4985839;28;20101;-63
2023/07/15 08:48:01;;;;;;;2.20;0.70;;;;;;;-142.75;100.00;75023.38;4985737;28;20060;-62
2023/07/15 08:50:31;;;;;;;3.03;0.90;;;;;;;-142.75;100.00;75013.53;4985565;28;20105;-61
2023/07/15 08:52:57;;;;;;;2.97;0.73;;;;;;;-142.75;100.00;75017.47;4986393;28;20026;-62
2023/07/15 08:55:23;;;;;;;4.28;0.90;;;;;;;-142.75;100.00;75035.19;4986561;28;20037;-62
2023/07/15 08:57:49;;;;;;;3.22;0.90;;;;;;;-142.75;100.00;75011.56;4986310;28;20034;-63
2023/07/15 09:00:15;;;;;;;1.30;0.70;;;;;;;-142.75;100.00;75023.38;4986215;28;20449;-63
2023/07/15 09:02:40;;;;;;;3.88;0.80;;;;;;;-142.75;100.00;75027.31;4986524;28;20030;-62
2023/07/15 09:05:09;;;;;;;2.90;0.95;;;;;;;-142.75;100.00;75033.22;4986362;28;20034;-62
2023/07/15 09:08:12;;;;;;;3.38;0.80;;;;;;;-142.75;100.00;75019.44;4986898;28;20037;-63
2023/07/15 09:10:51;;;;;;;2.60;0.90;;;;;;;-142.75;100.00;75019.44;4980409;28;20420;-57
2023/07/15 09:13:25;;;;;;;2.78;0.90;;;;;;;-142.75;100.00;75019.44;4986786;28;20026;-63
2023/07/15 09:15:51;;;;;;;2.30;0.60;;;;;;;-142.75;100.00;75043.03;4986848;28;20026;-62
2023/07/15 09:18:16;;;;;;;2.63;0.90;;;;;;;-142.75;100.00;75033.22;4986513;28;20026;-62
2023/07/15 09:20:42;;;;;;;2.58;0.80;;;;;;;-142.75;100.00;75023.38;4986282;28;20457;-62
2023/07/15 09:23:08;;;;;;;2.70;1.10;;;;;;;-142.75;100.00;75043.03;4986874;28;20054;-62
2023/07/15 09:25:35;;;;;;;1.92;0.70;;;;;;;-142.75;100.00;75041.09;4989425;28;20049;-62
2023/07/15 09:28:01;;;;;;;3.05;0.85;;;;;;;-142.75;100.00;75046.97;4986904;28;20022;-62
2023/07/15 09:30:26;;;;;;;2.33;0.90;;;;;;;-142.75;100.00;75023.38;4986237;28;20041;-61
2023/07/15 09:32:51;;;;;;;1.83;0.95;;;;;;;-142.75;100.00;75037.16;4985565;28;20022;-62
2023/07/15 09:35:17;;;;;;;5.72;1.27;;;;;;;-142.75;100.00;75054.84;4988012;28;20109;-62
2023/07/15 09:37:47;;;;;;;2.67;0.80;;;;;;;-142.75;100.00;75039.13;4992338;28;20088;-63
2023/07/15 09:40:13;;;;;;;2.55;0.90;;;;;;;-142.75;100.00;75058.78;4989338;28;20081;-62
2023/07/15 09:42:55;;;;;;;4.93;1.10;;;;;;;-142.75;100.00;75015.50;4989157;28;20017;-62
2023/07/15 09:45:33;;;;;;;3.03;1.08;;;;;;;-142.75;100.00;74987.94;4991388;28;20034;-63
2023/07/15 09:47:59;;;;;;;1.92;1.00;;;;;;;-142.75;100.00;74942.69;4994484;28;20061;-62
2023/07/15 09:50:25;;;;;;;2.55;1.02;;;;;;;-142.75;100.00;74924.97;5002658;28;20478;-63
2023/07/15 09:52:54;;;;;;;2.90;1.00;;;;;;;-142.75;100.00;74952.53;5006611;28;20088;-61
2023/07/15 09:55:22;;;;;;;2.55;0.80;;;;;;;-142.75;100.00;74924.97;4995138;28;20029;-61
2023/07/15 09:57:58;;;;;;;3.88;1.17;;;;;;;-142.75;100.00;74946.63;4989918;28;20188;-63
2023/07/15 10:00:28;;;;;;;2.65;0.90;;;;;;;-142.75;100.00;74972.22;4999752;28;20052;-62
2023/07/15 10:02:56;;;;;;;2.85;1.13;;;;;;;-142.75;100.00;74974.19;4995689;28;20032;-62
2023/07/15 10:05:24;;;;;;;4.40;1.20;;;;;;;-142.75;100.00;74999.75;5002440;28;20025;-63
2023/07/15 10:07:51;;;;;;;3.38;0.73;;;;;;;-142.75;100.00;74960.41;5005967;28;20034;-61
2023/07/15 10:10:18;;;;;;;4.43;0.88;;;;;;;-142.75;100.00;74950.56;5006088;28;20038;-62
2023/07/15 10:12:44;;;;;;;2.97;0.85;;;;;;;-142.75;100.00;74982.03;5011927;28;20041;-63
2023/07/15 10:15:10;;;;;;;2.97;1.10;;;;;;;-142.75;100.00;74978.13;5007969;28;20030;-62
2023/07/15 10:17:37;;;;;;;2.45;0.90;;;;;;;-142.75;100.00;75019.44;4996792;28;20512;-62
2023/07/15 10:20:04;;;;;;;3.35;0.98;;;;;;;-142.75;100.00;75013.53;5012405;28;20038;-62
2023/07/15 10:22:34;;;;;;;3.58;1.30;;;;;;;-142.75;100.00;75033.22;5013013;28;20032;-60
2023/07/15 10:25:03;;;;;;;2.40;1.20;;;;;;;-142.75;100.00;75060.75;5012445;28;20045;-57
2023/07/15 10:27:29;;;;;;;3.63;1.17;;;;;;;-142.75;100.00;75027.31;5002715;28;20025;-62
2023/07/15 10:30:25;;;;;;;1.90;1.00;;;;;;;-142.75;100.00;75035.19;4992330;28;20076;-62
2023/07/15 10:33:05;;;;;;;2.55;1.08;;;;;;;-142.75;100.00;75015.50;4992118;28;20026;-62
2023/07/15 10:35:35;;;;;;;2.33;0.90;;;;;;;-142.75;100.00;75013.53;5001959;28;20034;-62
2023/07/15 10:38:19;;;;;;;2.13;0.88;;;;;;;-142.75;100.00;74989.91;5011718;28;20519;-63
2023/07/15 10:40:47;;;;;;;4.05;1.15;;;;;;;-142.75;100.00;74946.63;5011675;28;20659;-62
2023/07/15 10:43:16;;;;;;;3.63;1.30;;;;;;;-142.75;100.00;74883.66;5012288;28;20118;-62
2023/07/15 10:45:41;;;;;;;2.13;1.00;;;;;;;-142.75;100.00;74879.72;5012116;28;20409;-63
2023/07/15 10:48:08;;;;;;;3.22;0.80;;;;;;;-142.75;100.00;74818.72;5001955;28;20030;-63
2023/07/15 10:50:35;;;;;;;4.03;1.00;;;;;;;-142.75;100.00;74775.44;4991698;28;20034;-63
2023/07/15 10:53:22;;;;;;;2.88;1.20;;;;;;;-142.75;100.00;74747.91;4990932;28;20168;-63
2023/07/15 10:55:57;;;;;;;3.13;1.13;;;;;;;-142.75;100.00;74740.03;4990748;28;20117;-62
2023/07/15 10:58:22;;;;;;;3.63;1.45;;;;;;;-142.75;100.00;74745.94;4990875;28;20639;-62
2023/07/15 11:00:48;;;;;;;4.38;1.27;;;;;;;-142.75;100.00;74716.41;4990401;28;20168;-62
2023/07/15 11:03:13;;;;;;;4.30;1.23;;;;;;;-142.75;100.00;74700.69;4990458;28;20520;-63
2023/07/15 11:05:42;;;;;;;2.95;1.08;;;;;;;-142.75;100.00;74722.31;4990214;28;20018;-63
2023/07/15 11:08:08;;;;;;;2.55;1.10;;;;;;;-142.75;100.00;74684.94;4996931;28;20766;-62